Time;durP1;ratioP1;P1;durP2;ratioP2;P2;SDS_P1;SDS_P2;PMS_P1;PMS_P2;Temp;Humidity;BMP_temperature;BMP_pressure;BME280_temperature;BME280_humidity;BME280_pressure;Samples;Min_cycle;Max_cycle;Signal;HPM_P1;HPM_P2
2022/05/29 00:02:28;;;;;;;2.53;1.23;;;;;;;;;;10460174;28;20236;-74
2022/05/29 00:07:30;;;;;;;2.17;1.23;;;;;;;;;;10439818;28;20880;-73
2022/05/29 00:12:31;;;;;;;3.60;0.80;;;;;;;;;;10434240;28;20785;-74
2022/05/29 00:17:33;;;;;;;3.63;1.08;;;;;;;;;;10435423;28;20202;-74
2022/05/29 00:22:34;;;;;;;5.47;1.35;;;;;;;;;;10438426;28;20203;-74
2022/05/29 00:27:35;;;;;;;1.85;1.05;;;;;;;;;;10424279;28;20199;-74
2022/05/29 00:32:36;;;;;;;3.25;1.17;;;;;;;;;;10457807;28;21298;-74
2022/05/29 00:37:39;;;;;;;2.92;1.52;;;;;;;;;;10434675;28;20210;-74
2022/05/29 00:42:40;;;;;;;2.70;1.20;;;;;;;;;;10438301;28;20202;-74
2022/05/29 00:47:41;;;;;;;2.28;1.27;;;;;;;;;;10430585;28;20225;-74
2022/05/29 00:52:42;;;;;;;5.05;1.25;;;;;;;;;;10419567;28;20221;-74
2022/05/29 00:57:48;;;;;;;5.40;1.45;;;;;;;;;;10425137;28;20296;-74
2022/05/29 01:02:49;;;;;;;2.78;1.38;;;;;;;;;;10450621;28;20218;-73
2022/05/29 01:07:54;;;;;;;4.45;1.27;;;;;;;;;;10456562;28;20221;-74
2022/05/29 01:13:00;;;;;;;6.20;1.83;;;;;;;;;;10441452;28;20228;-73
2022/05/29 01:18:26;;;;;;;4.20;1.27;;;;;;;;;;10443244;28;20202;-74
2022/05/29 01:23:30;;;;;;;4.32;1.25;;;;;;;;;;10439434;28;20214;-74
2022/05/29 01:28:45;;;;;;;2.08;1.50;;;;;;;;;;10441236;28;20194;-74
2022/05/29 01:33:49;;;;;;;4.55;1.65;;;;;;;;;;10460013;28;20219;-74
2022/05/29 01:39:01;;;;;;;5.15;1.50;;;;;;;;;;10454341;28;20842;-74
2022/05/29 01:44:14;;;;;;;4.35;1.48;;;;;;;;;;10434043;28;20314;-74
2022/05/29 01:49:17;;;;;;;7.82;1.88;;;;;;;;;;10452488;28;20210;-74
2022/05/29 01:54:22;;;;;;;3.80;1.40;;;;;;;;;;10451239;28;20301;-73
2022/05/29 01:59:27;;;;;;;4.32;1.42;;;;;;;;;;10450538;28;20213;-74
2022/05/29 02:04:30;;;;;;;7.57;1.52;;;;;;;;;;10430570;28;20764;-74
2022/05/29 02:09:34;;;;;;;6.18;1.65;;;;;;;;;;10421053;28;20218;-74
2022/05/29 02:14:36;;;;;;;3.92;1.60;;;;;;;;;;10437458;28;20970;-75
2022/05/29 02:19:47;;;;;;;2.72;1.23;;;;;;;;;;10441339;28;20217;-74
2022/05/29 02:24:50;;;;;;;4.63;1.80;;;;;;;;;;10452114;28;20202;-74
2022/05/29 02:29:51;;;;;;;1.52;1.27;;;;;;;;;;10460823;28;20313;-75
2022/05/29 02:34:57;;;;;;;4.53;1.40;;;;;;;;;;10423020;28;20230;-74
2022/05/29 02:40:09;;;;;;;5.38;1.60;;;;;;;;;;10446376;28;20203;-75
2022/05/29 02:45:24;;;;;;;4.13;1.58;;;;;;;;;;10435373;28;20198;-74
2022/05/29 02:50:40;;;;;;;2.25;1.75;;;;;;;;;;10441039;28;20210;-74
2022/05/29 02:55:43;;;;;;;4.53;1.90;;;;;;;;;;10457254;28;20716;-73
2022/05/29 03:01:22;;;;;;;7.20;2.20;;;;;;;;;;10446191;28;21412;-74
2022/05/29 03:06:45;;;;;;;5.05;1.90;;;;;;;;;;10262116;28;20276;-73
2022/05/29 03:11:47;;;;;;;4.45;2.38;;;;;;;;;;10299191;28;20356;-74
2022/05/29 03:17:09;;;;;;;5.88;2.00;;;;;;;;;;10301310;28;20248;-75
2022/05/29 03:22:16;;;;;;;6.35;1.70;;;;;;;;;;10300359;28;20507;-74
2022/05/29 03:27:30;;;;;;;3.20;1.83;;;;;;;;;;10288791;28;20216;-75
2022/05/29 03:32:31;;;;;;;4.38;1.90;;;;;;;;;;10296833;28;20224;-74
2022/05/29 03:37:32;;;;;;;4.20;1.67;;;;;;;;;;10395564;28;20269;-74
2022/05/29 03:42:33;;;;;;;4.97;2.00;;;;;;;;;;10401253;28;20214;-74
2022/05/29 03:47:36;;;;;;;7.05;1.70;;;;;;;;;;10376170;28;20261;-74
2022/05/29 03:52:37;;;;;;;3.25;2.47;;;;;;;;;;10395245;28;20226;-74
2022/05/29 03:57:38;;;;;;;2.15;1.50;;;;;;;;;;10396466;28;20196;-74
2022/05/29 04:02:40;;;;;;;6.53;2.10;;;;;;;;;;10398984;28;20694;-74
2022/05/29 04:13:01;;;;;;;5.30;2.15;;;;;;;;;;10400614;28;20218;-74
2022/05/29 04:18:03;;;;;;;3.72;1.85;;;;;;;;;;10397706;28;20203;-73
2022/05/29 04:23:04;;;;;;;1.95;1.73;;;;;;;;;;10388711;28;20214;-75
2022/05/29 04:28:07;;;;;;;6.00;2.10;;;;;;;;;;10389176;28;20195;-75
2022/05/29 04:33:08;;;;;;;6.93;2.63;;;;;;;;;;10382176;28;20230;-76
2022/05/29 04:38:10;;;;;;;7.60;3.25;;;;;;;;;;10339503;28;20249;-74
2022/05/29 04:43:11;;;;;;;2.15;1.90;;;;;;;;;;10362538;28;20878;-76
2022/05/29 04:48:13;;;;;;;3.13;2.72;;;;;;;;;;10388975;28;20210;-75
2022/05/29 04:53:14;;;;;;;3.35;2.05;;;;;;;;;;10404229;28;20211;-75
2022/05/29 04:58:15;;;;;;;5.78;2.47;;;;;;;;;;10409759;28;20194;-76
2022/05/29 05:03:16;;;;;;;5.70;2.55;;;;;;;;;;10380527;28;20214;-76
2022/05/29 05:08:17;;;;;;;7.40;2.75;;;;;;;;;;10432449;28;20234;-75
2022/05/29 05:13:18;;;;;;;4.68;2.55;;;;;;;;;;10428876;28;20261;-75
2022/05/29 05:18:19;;;;;;;4.82;2.28;;;;;;;;;;10423871;28;20198;-75
2022/05/29 05:23:20;;;;;;;6.43;2.50;;;;;;;;;;10435492;28;20198;-74
2022/05/29 05:28:23;;;;;;;10.57;2.97;;;;;;;;;;10411134;28;20220;-75
2022/05/29 05:33:24;;;;;;;4.25;2.50;;;;;;;;;;10446522;28;20223;-75
2022/05/29 05:38:27;;;;;;;9.05;2.30;;;;;;;;;;10432961;28;20230;-74
2022/05/29 05:43:30;;;;;;;6.85;3.42;;;;;;;;;;10438155;28;20259;-75
2022/05/29 05:48:31;;;;;;;4.15;2.90;;;;;;;;;;10441838;28;20203;-75
2022/05/29 05:53:33;;;;;;;7.30;2.55;;;;;;;;;;10415839;28;20214;-74
2022/05/29 05:58:34;;;;;;;6.40;2.28;;;;;;;;;;10431123;28;20954;-75
2022/05/29 06:03:35;;;;;;;3.53;2.33;;;;;;;;;;10392336;28;20226;-75
2022/05/29 06:08:37;;;;;;;8.48;2.33;;;;;;;;;;10410619;28;20757;-75
2022/05/29 06:13:38;;;;;;;14.23;2.28;;;;;;;;;;10424823;28;20299;-75
2022/05/29 06:18:39;;;;;;;8.35;2.20;;;;;;;;;;10391243;28;20207;-75
2022/05/29 06:23:40;;;;;;;6.18;2.40;;;;;;;;;;10441156;28;20198;-75
2022/05/29 06:28:41;;;;;;;8.80;2.05;;;;;;;;;;10436693;28;20209;-75
2022/05/29 06:33:42;;;;;;;5.28;2.22;;;;;;;;;;10414852;28;20229;-75
2022/05/29 06:38:45;;;;;;;7.53;1.92;;;;;;;;;;10415879;28;20732;-76
2022/05/29 06:43:46;;;;;;;12.70;2.35;;;;;;;;;;10444864;28;20294;-75
2022/05/29 06:48:47;;;;;;;5.28;1.58;;;;;;;;;;10424751;28;20201;-75
2022/05/29 06:53:49;;;;;;;4.40;1.60;;;;;;;;;;10420627;28;20217;-74
2022/05/29 06:58:50;;;;;;;5.72;1.80;;;;;;;;;;10430624;28;23280;-75
2022/05/29 07:09:11;;;;;;;3.80;1.50;;;;;;;;;;10395215;28;20220;-77
2022/05/29 07:14:12;;;;;;;1.88;1.33;;;;;;;;;;10363118;28;20207;-74
2022/05/29 07:19:15;;;;;;;9.30;1.70;;;;;;;;;;10393996;28;20730;-74
2022/05/29 07:24:16;;;;;;;4.63;1.30;;;;;;;;;;10402970;28;20290;-75
2022/05/29 07:29:17;;;;;;;3.53;1.50;;;;;;;;;;10404988;28;20310;-75
2022/05/29 07:34:19;;;;;;;1.98;1.42;;;;;;;;;;10377037;28;20250;-75
2022/05/29 07:39:20;;;;;;;5.50;2.50;;;;;;;;;;10355441;28;20206;-76
2022/05/29 07:44:21;;;;;;;5.45;1.98;;;;;;;;;;10392565;28;20585;-76
2022/05/29 07:49:23;;;;;;;3.03;1.50;;;;;;;;;;10375472;28;20208;-75
2022/05/29 07:54:26;;;;;;;4.68;1.50;;;;;;;;;;10382224;28;20253;-75
2022/05/29 07:59:27;;;;;;;3.97;1.17;;;;;;;;;;10378069;28;20211;-74
2022/05/29 08:04:28;;;;;;;2.47;1.38;;;;;;;;;;10388845;28;20776;-75
2022/05/29 08:09:29;;;;;;;5.32;1.45;;;;;;;;;;10420218;28;20194;-75
2022/05/29 08:14:31;;;;;;;2.35;1.08;;;;;;;;;;10409766;28;20218;-76
2022/05/29 08:19:34;;;;;;;5.15;1.63;;;;;;;;;;10419268;28;20210;-75
2022/05/29 08:35:15;;;;;;;2.15;1.50;;;;;;;;;;10420709;28;20249;-74
2022/05/29 08:40:16;;;;;;;5.68;2.05;;;;;;;;;;10424074;28;20661;-74
2022/05/29 08:45:18;;;;;;;5.65;1.88;;;;;;;;;;10387783;28;20232;-74
2022/05/29 08:50:24;;;;;;;4.35;1.90;;;;;;;;;;10409706;28;20206;-74
2022/05/29 08:55:31;;;;;;;6.88;1.42;;;;;;;;;;10398669;28;20210;-75
2022/05/29 09:00:45;;;;;;;3.22;1.05;;;;;;;;;;10413621;28;20205;-74
2022/05/29 09:05:56;;;;;;;4.57;1.60;;;;;;;;;;10408681;28;20598;-74
2022/05/29 09:10:59;;;;;;;3.83;1.90;;;;;;;;;;10432413;28;20413;-74
2022/05/29 09:16:05;;;;;;;7.18;1.90;;;;;;;;;;10396069;28;20219;-75
2022/05/29 09:21:13;;;;;;;4.88;1.30;;;;;;;;;;10417081;28;20617;-75
2022/05/29 09:26:18;;;;;;;2.72;1.50;;;;;;;;;;10418857;28;20203;-71
2022/05/29 09:31:21;;;;;;;2.95;1.10;;;;;;;;;;10394661;28;21237;-74
2022/05/29 09:36:41;;;;;;;1.77;1.70;;;;;;;;;;10418570;28;20289;-74
2022/05/29 09:42:02;;;;;;;4.55;2.25;;;;;;;;;;10436662;28;20229;-76
2022/05/29 09:52:23;;;;;;;7.55;2.70;;;;;;;;;;10408719;28;20355;-75
2022/05/29 09:57:26;;;;;;;3.58;1.90;;;;;;;;;;10427423;28;20198;-75
2022/05/29 10:02:35;;;;;;;11.20;5.40;;;;;;;;;;10414591;28;20215;-77
2022/05/29 10:07:40;;;;;;;10.55;4.00;;;;;;;;;;10429225;28;20948;-75
2022/05/29 10:12:46;;;;;;;4.60;1.88;;;;;;;;;;10420509;28;20217;-75
2022/05/29 10:17:47;;;;;;;3.08;1.55;;;;;;;;;;10439890;28;20203;-75
2022/05/29 10:22:49;;;;;;;3.22;1.50;;;;;;;;;;10406812;28;20237;-73
2022/05/29 10:27:52;;;;;;;3.35;1.40;;;;;;;;;;10398818;28;20226;-75
2022/05/29 10:33:00;;;;;;;1.75;1.00;;;;;;;;;;10421900;28;20211;-74
2022/05/29 10:38:19;;;;;;;4.95;0.75;;;;;;;;;;10423392;28;23639;-74
2022/05/29 10:43:34;;;;;;;2.63;1.30;;;;;;;;;;10427785;28;20195;-74
2022/05/29 10:48:45;;;;;;;3.67;1.23;;;;;;;;;;10432841;28;20202;-74
2022/05/29 10:54:05;;;;;;;3.42;1.75;;;;;;;;;;10399447;28;20206;-75
2022/05/29 10:59:25;;;;;;;7.05;2.50;;;;;;;;;;10398478;28;20218;-75
2022/05/29 11:04:40;;;;;;;4.53;2.55;;;;;;;;;;10408008;28;20218;-75
2022/05/29 11:09:48;;;;;;;3.88;1.52;;;;;;;;;;10416269;28;20213;-74
2022/05/29 11:15:12;;;;;;;4.88;1.10;;;;;;;;;;10417062;28;20397;-74
2022/05/29 11:20:32;;;;;;;2.72;1.00;;;;;;;;;;10406840;28;20202;-74
2022/05/29 11:25:42;;;;;;;3.60;0.70;;;;;;;;;;10408387;28;20199;-75
2022/05/29 11:31:02;;;;;;;2.45;0.70;;;;;;;;;;10381366;28;20221;-74
2022/05/29 11:36:08;;;;;;;2.10;0.90;;;;;;;;;;10426565;28;20233;-74
2022/05/29 11:41:12;;;;;;;1.85;1.00;;;;;;;;;;10417635;28;20198;-74
2022/05/29 11:51:55;;;;;;;0.73;0.73;;;;;;;;;;10420361;28;20206;-75
2022/05/29 11:57:03;;;;;;;1.02;0.60;;;;;;;;;;10420429;28;20198;-74
2022/05/29 12:02:09;;;;;;;1.63;0.60;;;;;;;;;;10401090;28;20210;-75
2022/05/29 12:07:13;;;;;;;1.67;0.60;;;;;;;;;;10416552;28;20234;-75
2022/05/29 12:12:17;;;;;;;0.80;0.63;;;;;;;;;;10408036;28;20691;-75
2022/05/29 12:17:25;;;;;;;1.55;0.65;;;;;;;;;;10418001;28;20202;-76
2022/05/29 12:22:30;;;;;;;0.82;0.50;;;;;;;;;;10433151;28;20210;-76
2022/05/29 12:27:33;;;;;;;1.63;0.50;;;;;;;;;;10421187;28;20206;-77
2022/05/29 12:32:35;;;;;;;1.35;0.63;;;;;;;;;;10412984;28;20218;-76
2022/05/29 12:37:42;;;;;;;1.13;0.60;;;;;;;;;;10400556;28;20226;-77
2022/05/29 12:42:53;;;;;;;0.75;0.50;;;;;;;;;;10425094;28;21095;-76
2022/05/29 12:48:00;;;;;;;1.00;0.70;;;;;;;;;;10408589;28;20194;-76
2022/05/29 12:53:13;;;;;;;0.88;0.73;;;;;;;;;;10394067;28;20245;-76
2022/05/29 12:58:23;;;;;;;1.00;1.00;;;;;;;;;;10430828;28;20221;-76
2022/05/29 13:03:38;;;;;;;0.73;0.73;;;;;;;;;;10425533;28;20226;-76
2022/05/29 13:09:00;;;;;;;1.00;0.50;;;;;;;;;;10390748;28;20233;-76
2022/05/29 13:14:03;;;;;;;0.30;0.30;;;;;;;;;;10408014;28;20912;-76
2022/05/29 13:24:17;;;;;;;2.17;0.50;;;;;;;;;;10421616;28;20332;-77
2022/05/29 13:29:40;;;;;;;1.40;0.60;;;;;;;;;;10403738;28;20277;-74
2022/05/29 13:34:50;;;;;;;0.63;0.50;;;;;;;;;;10409382;28;20218;-75
2022/05/29 13:39:57;;;;;;;0.45;0.30;;;;;;;;;;10411027;28;20204;-75
2022/05/29 13:44:59;;;;;;;0.40;0.40;;;;;;;;;;10411016;28;20235;-76
2022/05/29 13:50:02;;;;;;;0.30;0.30;;;;;;;;;;10419870;28;20228;-75
2022/05/29 13:55:17;;;;;;;0.55;0.30;;;;;;;;;;10413155;28;20207;-76
2022/05/29 14:05:58;;;;;;;0.30;0.30;;;;;;;;;;10426062;28;20886;-75
2022/05/29 14:10:59;;;;;;;0.20;0.20;;;;;;;;;;10421695;28;20240;-76
2022/05/29 14:16:07;;;;;;;0.20;0.20;;;;;;;;;;10429160;28;20206;-75
2022/05/29 14:21:24;;;;;;;0.20;0.20;;;;;;;;;;10412431;28;20777;-75
2022/05/29 14:26:46;;;;;;;0.13;0.10;;;;;;;;;;10428695;28;20217;-75
2022/05/29 14:31:57;;;;;;;0.20;0.20;;;;;;;;;;10420412;28;20226;-75
2022/05/29 14:36:58;;;;;;;0.80;0.32;;;;;;;;;;10440344;28;20313;-75
2022/05/29 14:42:09;;;;;;;0.50;0.50;;;;;;;;;;10436632;28;20194;-75
2022/05/29 14:47:11;;;;;;;1.20;0.50;;;;;;;;;;10435937;28;20199;-74
2022/05/29 14:52:27;;;;;;;2.58;0.63;;;;;;;;;;10410699;28;20194;-75
2022/05/29 14:57:31;;;;;;;0.50;0.50;;;;;;;;;;10428051;28;20194;-75
2022/05/29 15:02:32;;;;;;;1.08;0.50;;;;;;;;;;10425255;28;20260;-76
2022/05/29 15:12:56;;;;;;;0.40;0.40;;;;;;;;;;10416706;28;20220;-75
2022/05/29 15:18:11;;;;;;;0.65;0.43;;;;;;;;;;10413493;28;20198;-76
2022/05/29 15:28:33;;;;;;;0.40;0.40;;;;;;;;;;10444835;28;20285;-76
2022/05/29 15:33:37;;;;;;;0.40;0.40;;;;;;;;;;10437322;28;21012;-76
2022/05/29 15:38:47;;;;;;;0.30;0.30;;;;;;;;;;10426425;28;20214;-76
2022/05/29 15:43:53;;;;;;;0.45;0.30;;;;;;;;;;10408154;28;20252;-76
2022/05/29 15:48:54;;;;;;;0.38;0.38;;;;;;;;;;10419849;28;20210;-75
2022/05/29 15:53:58;;;;;;;1.38;0.40;;;;;;;;;;10430861;28;20214;-74
2022/05/29 15:58:59;;;;;;;1.25;0.40;;;;;;;;;;10431593;28;20705;-74
2022/05/29 16:04:01;;;;;;;0.20;0.20;;;;;;;;;;10432237;28;20262;-77
2022/05/29 16:09:08;;;;;;;0.40;0.30;;;;;;;;;;10403825;28;20226;-75
2022/05/29 16:14:10;;;;;;;0.52;0.30;;;;;;;;;;10442349;28;20216;-75
2022/05/29 16:19:30;;;;;;;0.82;0.40;;;;;;;;;;10414849;28;20253;-74
2022/05/29 16:24:35;;;;;;;0.30;0.30;;;;;;;;;;10421367;28;20288;-74
2022/05/29 16:29:40;;;;;;;0.28;0.28;;;;;;;;;;10411242;28;21869;-75
2022/05/29 16:34:45;;;;;;;0.30;0.30;;;;;;;;;;10406428;28;20300;-74
2022/05/29 16:50:36;;;;;;;0.20;0.20;;;;;;;;;;10424250;28;20206;-75
2022/05/29 16:55:42;;;;;;;0.30;0.30;;;;;;;;;;10448809;28;20218;-74
2022/05/29 17:00:51;;;;;;;0.55;0.30;;;;;;;;;;10438350;28;20214;-75
2022/05/29 17:05:53;;;;;;;0.35;0.30;;;;;;;;;;10413707;28;20226;-75
2022/05/29 17:10:57;;;;;;;0.40;0.40;;;;;;;;;;10422662;28;20214;-75
2022/05/29 17:15:59;;;;;;;0.38;0.38;;;;;;;;;;10422863;28;20214;-75
2022/05/29 17:21:08;;;;;;;0.68;0.30;;;;;;;;;;10437197;28;20204;-74
2022/05/29 17:26:15;;;;;;;0.40;0.30;;;;;;;;;;10429796;28;20222;-76
2022/05/29 17:31:31;;;;;;;0.52;0.40;;;;;;;;;;10413715;28;20229;-76
2022/05/29 17:36:51;;;;;;;0.65;0.50;;;;;;;;;;10435505;28;20238;-75
2022/05/29 17:41:52;;;;;;;1.23;0.40;;;;;;;;;;10451214;28;20203;-75
2022/05/29 17:47:02;;;;;;;0.50;0.50;;;;;;;;;;10442729;28;20198;-74
2022/05/29 17:52:24;;;;;;;0.57;0.40;;;;;;;;;;10445415;28;20310;-75
2022/05/29 17:57:30;;;;;;;0.45;0.45;;;;;;;;;;10385943;28;20287;-75
2022/05/29 18:02:31;;;;;;;0.73;0.73;;;;;;;;;;10436758;28;20320;-75
2022/05/29 18:07:32;;;;;;;0.93;0.93;;;;;;;;;;10427021;28;20214;-75
2022/05/29 18:12:34;;;;;;;0.70;0.70;;;;;;;;;;10439115;28;20209;-75
2022/05/29 18:17:35;;;;;;;0.90;0.90;;;;;;;;;;10435685;28;20198;-75
2022/05/29 18:22:37;;;;;;;0.98;0.98;;;;;;;;;;10432293;28;20209;-76
2022/05/29 18:27:38;;;;;;;0.60;0.60;;;;;;;;;;10419027;28;20241;-75
2022/05/29 18:32:39;;;;;;;0.40;0.40;;;;;;;;;;10422182;28;20626;-76
2022/05/29 18:37:40;;;;;;;0.47;0.47;;;;;;;;;;10413543;28;20191;-75
2022/05/29 18:42:42;;;;;;;0.40;0.40;;;;;;;;;;10395396;28;20199;-76
2022/05/29 18:47:43;;;;;;;0.50;0.50;;;;;;;;;;10434851;28;20252;-75
2022/05/29 18:52:45;;;;;;;0.73;0.50;;;;;;;;;;10445021;28;20216;-76
2022/05/29 18:57:46;;;;;;;0.90;0.90;;;;;;;;;;10404114;28;20254;-76
2022/05/29 19:02:47;;;;;;;0.90;0.90;;;;;;;;;;10397412;28;20236;-74
2022/05/29 19:07:49;;;;;;;1.05;0.60;;;;;;;;;;10425709;28;20221;-75
2022/05/29 19:12:50;;;;;;;0.90;0.77;;;;;;;;;;10448224;28;20225;-75
2022/05/29 19:18:10;;;;;;;1.17;0.70;;;;;;;;;;10443119;28;20201;-75
2022/05/29 19:23:12;;;;;;;0.90;0.90;;;;;;;;;;10441512;28;20194;-74
2022/05/29 19:28:14;;;;;;;1.48;0.88;;;;;;;;;;10453703;28;20204;-75
2022/05/29 19:33:15;;;;;;;0.98;0.98;;;;;;;;;;10432537;28;20249;-74
2022/05/29 19:38:16;;;;;;;0.82;0.70;;;;;;;;;;10429456;28;20195;-74
2022/05/29 19:43:17;;;;;;;2.20;0.70;;;;;;;;;;10416346;28;20244;-74
2022/05/29 19:48:18;;;;;;;1.02;1.02;;;;;;;;;;10403737;28;20318;-74
2022/05/29 19:53:19;;;;;;;0.88;0.88;;;;;;;;;;10435021;28;20217;-74
2022/05/29 19:58:20;;;;;;;1.05;1.05;;;;;;;;;;10442345;28;20198;-74
2022/05/29 20:03:21;;;;;;;1.90;1.02;;;;;;;;;;10448081;28;20217;-73
2022/05/29 20:08:22;;;;;;;1.35;1.08;;;;;;;;;;10450795;28;20325;-73
2022/05/29 20:13:24;;;;;;;2.75;1.70;;;;;;;;;;10426228;28;20210;-70
2022/05/29 20:18:25;;;;;;;1.95;1.20;;;;;;;;;;10430776;28;20433;-73
2022/05/29 20:23:26;;;;;;;2.08;1.20;;;;;;;;;;10443691;28;20590;-74
2022/05/29 20:28:27;;;;;;;0.85;0.70;;;;;;;;;;10441669;28;20206;-74
2022/05/29 20:33:28;;;;;;;2.85;0.80;;;;;;;;;;10406932;28;20253;-73
2022/05/29 20:38:29;;;;;;;1.58;0.80;;;;;;;;;;10443954;28;20205;-73
2022/05/29 20:43:31;;;;;;;0.93;0.77;;;;;;;;;;10417651;28;20296;-73
2022/05/29 20:48:33;;;;;;;1.13;1.00;;;;;;;;;;10433533;28;20205;-74
2022/05/29 20:53:34;;;;;;;1.27;0.98;;;;;;;;;;10451573;28;20210;-74
2022/05/29 20:58:35;;;;;;;1.85;1.40;;;;;;;;;;10433176;28;20213;-74
2022/05/29 21:03:36;;;;;;;1.77;1.67;;;;;;;;;;10435112;28;20249;-74
2022/05/29 21:08:38;;;;;;;3.42;1.60;;;;;;;;;;10440360;28;20241;-74
2022/05/29 21:13:40;;;;;;;1.67;1.58;;;;;;;;;;10452379;28;20297;-74
2022/05/29 21:18:42;;;;;;;2.15;1.40;;;;;;;;;;10442956;28;20198;-74
2022/05/29 21:23:43;;;;;;;1.38;1.27;;;;;;;;;;10445326;28;20217;-74
2022/05/29 21:28:44;;;;;;;4.97;1.52;;;;;;;;;;10428063;28;20209;-74
2022/05/29 21:33:45;;;;;;;1.60;1.25;;;;;;;;;;10414775;28;20690;-74
2022/05/29 21:38:47;;;;;;;1.75;1.30;;;;;;;;;;10461856;28;20199;-74
2022/05/29 21:43:48;;;;;;;1.85;1.35;;;;;;;;;;10459590;28;20702;-74
2022/05/29 21:48:49;;;;;;;1.65;1.55;;;;;;;;;;10462029;28;20190;-74
2022/05/29 21:53:50;;;;;;;2.15;1.30;;;;;;;;;;10431250;28;20220;-74
2022/05/29 21:58:53;;;;;;;3.97;1.55;;;;;;;;;;10458178;28;20243;-74
2022/05/29 22:03:56;;;;;;;3.53;1.70;;;;;;;;;;10439101;28;20298;-74
2022/05/29 22:08:58;;;;;;;2.20;1.60;;;;;;;;;;10452516;28;20245;-74
2022/05/29 22:13:59;;;;;;;1.65;1.55;;;;;;;;;;10436904;28;20419;-73
2022/05/29 22:19:00;;;;;;;2.25;1.70;;;;;;;;;;10457017;28;20198;-74
2022/05/29 22:24:02;;;;;;;2.30;1.85;;;;;;;;;;10440554;28;20225;-74
2022/05/29 22:29:03;;;;;;;4.07;1.63;;;;;;;;;;10453856;28;20209;-74
2022/05/29 22:34:09;;;;;;;3.47;1.88;;;;;;;;;;10438056;28;20223;-74
2022/05/29 22:39:12;;;;;;;1.92;1.83;;;;;;;;;;10439148;28;20199;-74
2022/05/29 22:44:13;;;;;;;4.45;1.70;;;;;;;;;;10442982;28;20638;-74
2022/05/29 22:49:25;;;;;;;2.65;1.65;;;;;;;;;;10449598;28;20193;-73
2022/05/29 22:54:30;;;;;;;2.50;2.03;;;;;;;;;;10436152;28;20230;-73
2022/05/29 22:59:31;;;;;;;2.58;1.92;;;;;;;;;;10457560;28;20296;-74
2022/05/29 23:04:43;;;;;;;4.28;1.80;;;;;;;;;;10442429;28;20650;-74
2022/05/29 23:09:44;;;;;;;4.00;2.13;;;;;;;;;;10461527;28;20206;-74
2022/05/29 23:14:45;;;;;;;2.53;2.05;;;;;;;;;;10416865;28;20729;-74
2022/05/29 23:19:46;;;;;;;4.70;2.10;;;;;;;;;;10445995;28;20190;-74
2022/05/29 23:24:52;;;;;;;5.35;2.03;;;;;;;;;;10417380;28;20325;-75
2022/05/29 23:30:05;;;;;;;2.63;2.33;;;;;;;;;;10403321;28;20231;-74
2022/05/29 23:35:06;;;;;;;3.50;2.40;;;;;;;;;;10427619;28;20309;-74
2022/05/29 23:40:08;;;;;;;2.65;2.20;;;;;;;;;;10444933;28;20199;-73
2022/05/29 23:45:18;;;;;;;3.22;2.20;;;;;;;;;;10461705;28;20194;-74
2022/05/29 23:50:19;;;;;;;6.28;3.00;;;;;;;;;;10435585;28;20210;-73
2022/05/29 23:55:21;;;;;;;4.65;2.92;;;;;;;;;;10456050;28;20227;-74
